sensor_id;sensor_type;location;lat;lon;timestamp;P1;durP1;ratioP1;P2;durP2;ratioP2
9559;SDS011;4818;50.860;4.648;2023-02-28T00:00:37;5.25;;;3.38;;
9559;SDS011;4818;50.860;4.648;2023-02-28T00:03:04;7.10;;;3.80;;
9559;SDS011;4818;50.860;4.648;2023-02-28T00:05:30;9.55;;;4.38;;
9559;SDS011;4818;50.860;4.648;2023-02-28T00:07:56;9.82;;;3.65;;
9559;SDS011;4818;50.860;4.648;2023-02-28T00:10:27;7.20;;;3.90;;
9559;SDS011;4818;50.860;4.648;2023-02-28T00:12:55;8.55;;;3.00;;
9559;SDS011;4818;50.860;4.648;2023-02-28T00:15:22;7.47;;;3.90;;
9559;SDS011;4818;50.860;4.648;2023-02-28T00:17:49;11.15;;;4.00;;
9559;SDS011;4818;50.860;4.648;2023-02-28T00:20:15;10.68;;;4.57;;
9559;SDS011;4818;50.860;4.648;2023-02-28T00:22:43;8.25;;;3.03;;
9559;SDS011;4818;50.860;4.648;2023-02-28T00:25:10;4.72;;;2.92;;
9559;SDS011;4818;50.860;4.648;2023-02-28T00:27:37;6.65;;;3.17;;
9559;SDS011;4818;50.860;4.648;2023-02-28T00:30:04;7.30;;;3.72;;
9559;SDS011;4818;50.860;4.648;2023-02-28T00:32:30;5.40;;;3.35;;
9559;SDS011;4818;50.860;4.648;2023-02-28T00:34:57;11.73;;;3.72;;
9559;SDS011;4818;50.860;4.648;2023-02-28T00:37:23;6.30;;;3.97;;
9559;SDS011;4818;50.860;4.648;2023-02-28T00:39:49;7.03;;;4.00;;
9559;SDS011;4818;50.860;4.648;2023-02-28T00:42:15;10.90;;;3.70;;
9559;SDS011;4818;50.860;4.648;2023-02-28T00:44:42;6.00;;;3.10;;
9559;SDS011;4818;50.860;4.648;2023-02-28T00:47:08;6.97;;;3.17;;
9559;SDS011;4818;50.860;4.648;2023-02-28T00:49:34;14.25;;;3.60;;
9559;SDS011;4818;50.860;4.648;2023-02-28T00:52:00;11.15;;;3.33;;
9559;SDS011;4818;50.860;4.648;2023-02-28T00:54:26;5.95;;;3.05;;
9559;SDS011;4818;50.860;4.648;2023-02-28T00:56:53;7.57;;;3.72;;
9559;SDS011;4818;50.860;4.648;2023-02-28T00:59:19;9.82;;;3.53;;
9559;SDS011;4818;50.860;4.648;2023-02-28T01:01:46;6.95;;;2.88;;
9559;SDS011;4818;50.860;4.648;2023-02-28T01:04:13;6.95;;;3.63;;
9559;SDS011;4818;50.860;4.648;2023-02-28T01:06:39;9.63;;;3.80;;
9559;SDS011;4818;50.860;4.648;2023-02-28T01:09:06;9.25;;;4.53;;
9559;SDS011;4818;50.860;4.648;2023-02-28T01:11:32;7.00;;;3.20;;
9559;SDS011;4818;50.860;4.648;2023-02-28T01:13:59;9.68;;;3.70;;
9559;SDS011;4818;50.860;4.648;2023-02-28T01:16:25;9.80;;;3.28;;
9559;SDS011;4818;50.860;4.648;2023-02-28T01:18:51;4.72;;;3.13;;
9559;SDS011;4818;50.860;4.648;2023-02-28T01:21:19;9.05;;;3.17;;
9559;SDS011;4818;50.860;4.648;2023-02-28T01:23:46;4.63;;;2.60;;
9559;SDS011;4818;50.860;4.648;2023-02-28T01:26:14;7.32;;;3.03;;
9559;SDS011;4818;50.860;4.648;2023-02-28T01:28:40;7.00;;;3.13;;
9559;SDS011;4818;50.860;4.648;2023-02-28T01:31:07;6.22;;;2.88;;
9559;SDS011;4818;50.860;4.648;2023-02-28T01:33:33;9.48;;;3.88;;
9559;SDS011;4818;50.860;4.648;2023-02-28T01:36:00;7.25;;;3.42;;
9559;SDS011;4818;50.860;4.648;2023-02-28T01:38:26;6.85;;;3.53;;
9559;SDS011;4818;50.860;4.648;2023-02-28T01:40:53;6.25;;;3.63;;
9559;SDS011;4818;50.860;4.648;2023-02-28T01:43:24;8.95;;;3.42;;
9559;SDS011;4818;50.860;4.648;2023-02-28T01:45:55;10.02;;;3.88;;
9559;SDS011;4818;50.860;4.648;2023-02-28T01:48:23;10.85;;;3.13;;
9559;SDS011;4818;50.860;4.648;2023-02-28T01:50:51;8.35;;;3.53;;
9559;SDS011;4818;50.860;4.648;2023-02-28T01:53:18;10.88;;;3.40;;
9559;SDS011;4818;50.860;4.648;2023-02-28T01:55:47;15.07;;;4.35;;
9559;SDS011;4818;50.860;4.648;2023-02-28T01:58:14;6.70;;;3.47;;
9559;SDS011;4818;50.860;4.648;2023-02-28T02:00:40;9.30;;;4.20;;
9559;SDS011;4818;50.860;4.648;2023-02-28T02:03:12;7.82;;;3.67;;
9559;SDS011;4818;50.860;4.648;2023-02-28T02:05:39;8.57;;;3.75;;
9559;SDS011;4818;50.860;4.648;2023-02-28T02:08:06;7.00;;;3.55;;
9559;SDS011;4818;50.860;4.648;2023-02-28T02:10:35;9.82;;;3.80;;
9559;SDS011;4818;50.860;4.648;2023-02-28T02:17:58;7.25;;;4.07;;
9559;SDS011;4818;50.860;4.648;2023-02-28T02:20:44;8.45;;;3.53;;
9559;SDS011;4818;50.860;4.648;2023-02-28T02:25:52;9.10;;;4.07;;
9559;SDS011;4818;50.860;4.648;2023-02-28T02:36:25;5.85;;;4.18;;
9559;SDS011;4818;50.860;4.648;2023-02-28T02:39:02;9.10;;;4.72;;
9559;SDS011;4818;50.860;4.648;2023-02-28T02:41:45;9.85;;;4.45;;
9559;SDS011;4818;50.860;4.648;2023-02-28T02:44:30;9.77;;;4.20;;
9559;SDS011;4818;50.860;4.648;2023-02-28T02:47:02;7.35;;;4.07;;
9559;SDS011;4818;50.860;4.648;2023-02-28T02:49:33;12.18;;;4.80;;
9559;SDS011;4818;50.860;4.648;2023-02-28T02:52:05;8.25;;;4.53;;
9559;SDS011;4818;50.860;4.648;2023-02-28T02:54:36;11.95;;;4.47;;
9559;SDS011;4818;50.860;4.648;2023-02-28T02:57:04;9.13;;;5.22;;
9559;SDS011;4818;50.860;4.648;2023-02-28T02:59:31;7.80;;;4.30;;
9559;SDS011;4818;50.860;4.648;2023-02-28T03:02:00;10.20;;;4.65;;
9559;SDS011;4818;50.860;4.648;2023-02-28T03:04:27;10.20;;;5.57;;
9559;SDS011;4818;50.860;4.648;2023-02-28T03:06:54;13.13;;;5.15;;
9559;SDS011;4818;50.860;4.648;2023-02-28T03:09:24;9.18;;;4.53;;
9559;SDS011;4818;50.860;4.648;2023-02-28T03:11:52;9.60;;;4.60;;
9559;SDS011;4818;50.860;4.648;2023-02-28T03:16:56;11.45;;;5.45;;
9559;SDS011;4818;50.860;4.648;2023-02-28T03:19:34;10.15;;;5.40;;
9559;SDS011;4818;50.860;4.648;2023-02-28T03:24:32;9.13;;;4.80;;
9559;SDS011;4818;50.860;4.648;2023-02-28T03:27:11;8.98;;;5.13;;
9559;SDS011;4818;50.860;4.648;2023-02-28T03:29:46;10.18;;;5.68;;
9559;SDS011;4818;50.860;4.648;2023-02-28T03:32:18;13.60;;;6.00;;
9559;SDS011;4818;50.860;4.648;2023-02-28T03:34:58;12.07;;;5.75;;
9559;SDS011;4818;50.860;4.648;2023-02-28T03:37:30;9.70;;;4.90;;
9559;SDS011;4818;50.860;4.648;2023-02-28T03:40:00;9.32;;;5.60;;
9559;SDS011;4818;50.860;4.648;2023-02-28T03:42:29;8.35;;;4.50;;
9559;SDS011;4818;50.860;4.648;2023-02-28T03:44:58;10.50;;;5.15;;
9559;SDS011;4818;50.860;4.648;2023-02-28T03:47:29;13.30;;;5.60;;
9559;SDS011;4818;50.860;4.648;2023-02-28T03:50:02;12.82;;;5.20;;
9559;SDS011;4818;50.860;4.648;2023-02-28T03:52:33;11.30;;;5.53;;
9559;SDS011;4818;50.860;4.648;2023-02-28T03:55:00;12.93;;;5.65;;
9559;SDS011;4818;50.860;4.648;2023-02-28T04:00:09;11.20;;;5.70;;
9559;SDS011;4818;50.860;4.648;2023-02-28T04:02:36;8.68;;;5.22;;
9559;SDS011;4818;50.860;4.648;2023-02-28T04:05:02;10.48;;;5.38;;
9559;SDS011;4818;50.860;4.648;2023-02-28T04:07:29;10.27;;;5.50;;
9559;SDS011;4818;50.860;4.648;2023-02-28T04:09:55;15.23;;;6.35;;
9559;SDS011;4818;50.860;4.648;2023-02-28T04:12:22;12.32;;;5.95;;
9559;SDS011;4818;50.860;4.648;2023-02-28T04:14:49;13.98;;;6.82;;
9559;SDS011;4818;50.860;4.648;2023-02-28T04:17:15;13.25;;;6.55;;
9559;SDS011;4818;50.860;4.648;2023-02-28T04:19:42;12.25;;;6.10;;
9559;SDS011;4818;50.860;4.648;2023-02-28T04:22:08;14.73;;;7.15;;
9559;SDS011;4818;50.860;4.648;2023-02-28T04:24:35;12.55;;;7.18;;
9559;SDS011;4818;50.860;4.648;2023-02-28T04:27:02;14.50;;;7.32;;
9559;SDS011;4818;50.860;4.648;2023-02-28T04:29:30;11.77;;;5.93;;
9559;SDS011;4818;50.860;4.648;2023-02-28T04:32:00;12.27;;;6.43;;
9559;SDS011;4818;50.860;4.648;2023-02-28T04:34:26;13.32;;;6.05;;
9559;SDS011;4818;50.860;4.648;2023-02-28T04:36:53;10.35;;;6.25;;
9559;SDS011;4818;50.860;4.648;2023-02-28T04:39:20;10.93;;;6.38;;
9559;SDS011;4818;50.860;4.648;2023-02-28T04:41:47;12.13;;;6.60;;
9559;SDS011;4818;50.860;4.648;2023-02-28T04:44:13;11.68;;;6.13;;
9559;SDS011;4818;50.860;4.648;2023-02-28T04:46:40;15.27;;;6.55;;
9559;SDS011;4818;50.860;4.648;2023-02-28T04:49:08;10.00;;;5.93;;
9559;SDS011;4818;50.860;4.648;2023-02-28T04:51:34;11.95;;;6.00;;
9559;SDS011;4818;50.860;4.648;2023-02-28T04:54:00;15.50;;;7.65;;
9559;SDS011;4818;50.860;4.648;2023-02-28T04:56:26;13.57;;;6.45;;
9559;SDS011;4818;50.860;4.648;2023-02-28T04:58:53;15.55;;;7.13;;
9559;SDS011;4818;50.860;4.648;2023-02-28T05:03:46;14.93;;;6.72;;
9559;SDS011;4818;50.860;4.648;2023-02-28T05:06:13;13.68;;;6.93;;
9559;SDS011;4818;50.860;4.648;2023-02-28T05:08:39;10.27;;;6.28;;
9559;SDS011;4818;50.860;4.648;2023-02-28T05:11:06;10.63;;;6.25;;
9559;SDS011;4818;50.860;4.648;2023-02-28T05:13:33;16.92;;;7.68;;
9559;SDS011;4818;50.860;4.648;2023-02-28T05:16:00;11.80;;;7.22;;
9559;SDS011;4818;50.860;4.648;2023-02-28T05:18:27;12.20;;;8.02;;
9559;SDS011;4818;50.860;4.648;2023-02-28T05:20:53;13.85;;;6.65;;
9559;SDS011;4818;50.860;4.648;2023-02-28T05:23:19;15.52;;;8.40;;
9559;SDS011;4818;50.860;4.648;2023-02-28T05:25:47;13.07;;;7.00;;
9559;SDS011;4818;50.860;4.648;2023-02-28T05:28:13;17.55;;;7.43;;
9559;SDS011;4818;50.860;4.648;2023-02-28T05:30:40;15.35;;;7.35;;
9559;SDS011;4818;50.860;4.648;2023-02-28T05:33:06;16.83;;;8.45;;
9559;SDS011;4818;50.860;4.648;2023-02-28T05:35:32;13.02;;;6.72;;
9559;SDS011;4818;50.860;4.648;2023-02-28T05:37:59;12.05;;;7.18;;
9559;SDS011;4818;50.860;4.648;2023-02-28T05:40:25;13.30;;;7.35;;
9559;SDS011;4818;50.860;4.648;2023-02-28T05:42:51;16.60;;;7.47;;
9559;SDS011;4818;50.860;4.648;2023-02-28T05:45:18;14.05;;;7.28;;
9559;SDS011;4818;50.860;4.648;2023-02-28T05:47:44;14.30;;;7.68;;
9559;SDS011;4818;50.860;4.648;2023-02-28T05:50:11;12.73;;;7.00;;
9559;SDS011;4818;50.860;4.648;2023-02-28T05:52:37;11.52;;;7.07;;
9559;SDS011;4818;50.860;4.648;2023-02-28T05:55:04;11.43;;;7.13;;
9559;SDS011;4818;50.860;4.648;2023-02-28T05:57:30;12.10;;;7.63;;
9559;SDS011;4818;50.860;4.648;2023-02-28T05:59:56;14.15;;;7.22;;
9559;SDS011;4818;50.860;4.648;2023-02-28T06:02:22;14.90;;;6.80;;
9559;SDS011;4818;50.860;4.648;2023-02-28T06:04:48;14.77;;;7.45;;
9559;SDS011;4818;50.860;4.648;2023-02-28T06:07:15;12.30;;;7.00;;
9559;SDS011;4818;50.860;4.648;2023-02-28T06:09:42;12.73;;;6.70;;
9559;SDS011;4818;50.860;4.648;2023-02-28T06:12:09;12.13;;;6.68;;
9559;SDS011;4818;50.860;4.648;2023-02-28T06:14:36;10.93;;;6.10;;
9559;SDS011;4818;50.860;4.648;2023-02-28T06:17:02;15.18;;;7.50;;
9559;SDS011;4818;50.860;4.648;2023-02-28T06:19:28;11.65;;;6.60;;
9559;SDS011;4818;50.860;4.648;2023-02-28T06:21:56;12.98;;;7.13;;
9559;SDS011;4818;50.860;4.648;2023-02-28T06:24:23;11.32;;;6.60;;
9559;SDS011;4818;50.860;4.648;2023-02-28T06:26:49;13.98;;;7.25;;
9559;SDS011;4818;50.860;4.648;2023-02-28T06:29:17;11.82;;;6.68;;
9559;SDS011;4818;50.860;4.648;2023-02-28T06:31:45;11.93;;;7.17;;
9559;SDS011;4818;50.860;4.648;2023-02-28T06:34:12;13.18;;;7.20;;
9559;SDS011;4818;50.860;4.648;2023-02-28T06:36:39;11.63;;;7.25;;
9559;SDS011;4818;50.860;4.648;2023-02-28T06:39:05;17.38;;;7.28;;
9559;SDS011;4818;50.860;4.648;2023-02-28T06:41:32;13.65;;;6.93;;
9559;SDS011;4818;50.860;4.648;2023-02-28T06:44:03;15.30;;;7.70;;
9559;SDS011;4818;50.860;4.648;2023-02-28T06:46:30;13.02;;;7.63;;
9559;SDS011;4818;50.860;4.648;2023-02-28T06:48:57;15.02;;;7.80;;
9559;SDS011;4818;50.860;4.648;2023-02-28T06:51:23;14.52;;;7.22;;
9559;SDS011;4818;50.860;4.648;2023-02-28T06:53:50;11.98;;;7.10;;
9559;SDS011;4818;50.860;4.648;2023-02-28T06:56:17;17.63;;;7.43;;
9559;SDS011;4818;50.860;4.648;2023-02-28T06:58:46;17.63;;;8.30;;
9559;SDS011;4818;50.860;4.648;2023-02-28T07:01:13;17.20;;;7.07;;
9559;SDS011;4818;50.860;4.648;2023-02-28T07:03:39;20.75;;;7.10;;
9559;SDS011;4818;50.860;4.648;2023-02-28T07:06:06;14.48;;;7.25;;
9559;SDS011;4818;50.860;4.648;2023-02-28T07:08:33;15.80;;;7.28;;
9559;SDS011;4818;50.860;4.648;2023-02-28T07:10:59;14.57;;;7.50;;
9559;SDS011;4818;50.860;4.648;2023-02-28T07:13:26;11.73;;;7.57;;
9559;SDS011;4818;50.860;4.648;2023-02-28T07:15:53;14.38;;;6.88;;
9559;SDS011;4818;50.860;4.648;2023-02-28T07:18:19;10.70;;;7.07;;
9559;SDS011;4818;50.860;4.648;2023-02-28T07:20:45;17.33;;;7.63;;
9559;SDS011;4818;50.860;4.648;2023-02-28T07:23:12;13.50;;;5.88;;
9559;SDS011;4818;50.860;4.648;2023-02-28T07:25:38;7.60;;;5.40;;
9559;SDS011;4818;50.860;4.648;2023-02-28T07:28:04;7.03;;;4.47;;
9559;SDS011;4818;50.860;4.648;2023-02-28T07:30:30;9.85;;;5.00;;
9559;SDS011;4818;50.860;4.648;2023-02-28T07:32:56;10.52;;;5.18;;
9559;SDS011;4818;50.860;4.648;2023-02-28T07:35:23;7.00;;;4.20;;
9559;SDS011;4818;50.860;4.648;2023-02-28T07:37:49;11.93;;;4.45;;
9559;SDS011;4818;50.860;4.648;2023-02-28T07:40:15;6.20;;;4.43;;
9559;SDS011;4818;50.860;4.648;2023-02-28T07:42:43;8.82;;;4.13;;
9559;SDS011;4818;50.860;4.648;2023-02-28T07:45:10;7.47;;;4.75;;
9559;SDS011;4818;50.860;4.648;2023-02-28T07:47:40;9.60;;;4.70;;
9559;SDS011;4818;50.860;4.648;2023-02-28T07:50:07;7.25;;;4.03;;
9559;SDS011;4818;50.860;4.648;2023-02-28T07:52:35;7.57;;;4.50;;
9559;SDS011;4818;50.860;4.648;2023-02-28T07:55:02;5.97;;;3.95;;
9559;SDS011;4818;50.860;4.648;2023-02-28T07:57:29;5.18;;;3.03;;
9559;SDS011;4818;50.860;4.648;2023-02-28T07:59:56;8.73;;;3.22;;
9559;SDS011;4818;50.860;4.648;2023-02-28T08:02:22;6.10;;;3.05;;
9559;SDS011;4818;50.860;4.648;2023-02-28T08:04:48;9.55;;;2.95;;
9559;SDS011;4818;50.860;4.648;2023-02-28T08:07:15;7.95;;;2.97;;
9559;SDS011;4818;50.860;4.648;2023-02-28T08:09:42;8.18;;;2.45;;
9559;SDS011;4818;50.860;4.648;2023-02-28T08:12:09;6.88;;;3.20;;
9559;SDS011;4818;50.860;4.648;2023-02-28T08:14:36;5.05;;;2.70;;
9559;SDS011;4818;50.860;4.648;2023-02-28T08:17:02;7.13;;;2.60;;
9559;SDS011;4818;50.860;4.648;2023-02-28T08:19:28;4.55;;;2.38;;
9559;SDS011;4818;50.860;4.648;2023-02-28T08:21:56;3.83;;;2.58;;
9559;SDS011;4818;50.860;4.648;2023-02-28T08:24:24;4.68;;;2.05;;
9559;SDS011;4818;50.860;4.648;2023-02-28T08:26:51;4.70;;;2.35;;
9559;SDS011;4818;50.860;4.648;2023-02-28T08:29:17;2.90;;;1.70;;
9559;SDS011;4818;50.860;4.648;2023-02-28T08:31:43;4.25;;;2.15;;
9559;SDS011;4818;50.860;4.648;2023-02-28T08:34:11;8.05;;;2.60;;
9559;SDS011;4818;50.860;4.648;2023-02-28T08:36:38;7.60;;;2.30;;
9559;SDS011;4818;50.860;4.648;2023-02-28T08:39:05;3.47;;;2.08;;
9559;SDS011;4818;50.860;4.648;2023-02-28T08:41:31;5.80;;;2.10;;
9559;SDS011;4818;50.860;4.648;2023-02-28T08:43:58;3.92;;;2.10;;
9559;SDS011;4818;50.860;4.648;2023-02-28T08:46:24;4.95;;;2.53;;
9559;SDS011;4818;50.860;4.648;2023-02-28T08:48:54;3.50;;;2.00;;
9559;SDS011;4818;50.860;4.648;2023-02-28T08:51:21;2.75;;;1.88;;
9559;SDS011;4818;50.860;4.648;2023-02-28T08:53:54;3.78;;;2.03;;
9559;SDS011;4818;50.860;4.648;2023-02-28T08:56:20;3.97;;;1.80;;
9559;SDS011;4818;50.860;4.648;2023-02-28T08:58:47;3.35;;;1.83;;
9559;SDS011;4818;50.860;4.648;2023-02-28T09:01:15;5.43;;;2.30;;
9559;SDS011;4818;50.860;4.648;2023-02-28T09:03:41;4.25;;;2.00;;
9559;SDS011;4818;50.860;4.648;2023-02-28T09:06:11;6.20;;;1.67;;
9559;SDS011;4818;50.860;4.648;2023-02-28T09:11:04;2.38;;;1.40;;
9559;SDS011;4818;50.860;4.648;2023-02-28T09:13:30;2.47;;;1.10;;
9559;SDS011;4818;50.860;4.648;2023-02-28T09:15:57;2.95;;;1.50;;
9559;SDS011;4818;50.860;4.648;2023-02-28T09:18:24;5.10;;;1.40;;
9559;SDS011;4818;50.860;4.648;2023-02-28T09:20:51;2.47;;;1.30;;
9559;SDS011;4818;50.860;4.648;2023-02-28T09:23:21;2.25;;;1.15;;
9559;SDS011;4818;50.860;4.648;2023-02-28T09:28:13;2.08;;;0.85;;
9559;SDS011;4818;50.860;4.648;2023-02-28T09:30:46;3.42;;;0.90;;
9559;SDS011;4818;50.860;4.648;2023-02-28T09:33:12;3.63;;;1.33;;
9559;SDS011;4818;50.860;4.648;2023-02-28T09:35:40;4.32;;;1.40;;
9559;SDS011;4818;50.860;4.648;2023-02-28T09:38:08;2.00;;;0.95;;
9559;SDS011;4818;50.860;4.648;2023-02-28T09:40:39;2.35;;;0.90;;
9559;SDS011;4818;50.860;4.648;2023-02-28T09:43:11;6.75;;;1.50;;
9559;SDS011;4818;50.860;4.648;2023-02-28T09:45:40;2.23;;;0.73;;
9559;SDS011;4818;50.860;4.648;2023-02-28T09:48:12;1.73;;;0.68;;
9559;SDS011;4818;50.860;4.648;2023-02-28T09:50:52;2.72;;;0.80;;
9559;SDS011;4818;50.860;4.648;2023-02-28T09:53:22;2.50;;;0.68;;
9559;SDS011;4818;50.860;4.648;2023-02-28T09:55:53;1.85;;;0.57;;
9559;SDS011;4818;50.860;4.648;2023-02-28T09:58:26;4.10;;;0.90;;
9559;SDS011;4818;50.860;4.648;2023-02-28T10:01:39;1.33;;;0.55;;
9559;SDS011;4818;50.860;4.648;2023-02-28T10:03:50;3.15;;;0.60;;
9559;SDS011;4818;50.860;4.648;2023-02-28T10:06:22;1.17;;;0.50;;
9559;SDS011;4818;50.860;4.648;2023-02-28T10:09:02;1.58;;;0.50;;
9559;SDS011;4818;50.860;4.648;2023-02-28T10:11:30;0.85;;;0.45;;
9559;SDS011;4818;50.860;4.648;2023-02-28T10:14:02;1.17;;;0.47;;
9559;SDS011;4818;50.860;4.648;2023-02-28T10:16:38;2.13;;;0.77;;
9559;SDS011;4818;50.860;4.648;2023-02-28T10:24:55;1.67;;;0.63;;
9559;SDS011;4818;50.860;4.648;2023-02-28T10:27:26;1.73;;;0.68;;
9559;SDS011;4818;50.860;4.648;2023-02-28T10:29:55;5.18;;;0.88;;
9559;SDS011;4818;50.860;4.648;2023-02-28T10:32:25;2.17;;;0.43;;
9559;SDS011;4818;50.860;4.648;2023-02-28T10:37:41;1.52;;;0.50;;
9559;SDS011;4818;50.860;4.648;2023-02-28T10:40:24;2.08;;;0.70;;
9559;SDS011;4818;50.860;4.648;2023-02-28T10:42:58;2.08;;;0.50;;
9559;SDS011;4818;50.860;4.648;2023-02-28T10:45:26;1.38;;;0.40;;
9559;SDS011;4818;50.860;4.648;2023-02-28T10:47:58;1.60;;;0.40;;
9559;SDS011;4818;50.860;4.648;2023-02-28T10:55:58;0.95;;;0.40;;
9559;SDS011;4818;50.860;4.648;2023-02-28T11:01:12;2.47;;;0.60;;
9559;SDS011;4818;50.860;4.648;2023-02-28T11:03:39;3.72;;;0.60;;
9559;SDS011;4818;50.860;4.648;2023-02-28T11:06:14;1.73;;;0.82;;
9559;SDS011;4818;50.860;4.648;2023-02-28T11:08:45;1.33;;;0.70;;
9559;SDS011;4818;50.860;4.648;2023-02-28T11:11:12;3.50;;;0.80;;
9559;SDS011;4818;50.860;4.648;2023-02-28T11:13:38;1.88;;;0.63;;
9559;SDS011;4818;50.860;4.648;2023-02-28T11:16:06;3.05;;;0.52;;
9559;SDS011;4818;50.860;4.648;2023-02-28T11:18:40;1.15;;;0.50;;
9559;SDS011;4818;50.860;4.648;2023-02-28T11:21:08;2.95;;;1.05;;
9559;SDS011;4818;50.860;4.648;2023-02-28T11:23:36;1.92;;;0.65;;
9559;SDS011;4818;50.860;4.648;2023-02-28T11:26:03;1.83;;;0.57;;
9559;SDS011;4818;50.860;4.648;2023-02-28T11:31:05;2.35;;;0.65;;
9559;SDS011;4818;50.860;4.648;2023-02-28T11:33:32;2.22;;;0.65;;
9559;SDS011;4818;50.860;4.648;2023-02-28T11:38:41;1.25;;;0.30;;
9559;SDS011;4818;50.860;4.648;2023-02-28T11:43:56;2.65;;;0.52;;
9559;SDS011;4818;50.860;4.648;2023-02-28T11:51:27;1.63;;;0.43;;
9559;SDS011;4818;50.860;4.648;2023-02-28T11:56:44;2.05;;;0.60;;
9559;SDS011;4818;50.860;4.648;2023-02-28T11:59:27;1.50;;;0.40;;
9559;SDS011;4818;50.860;4.648;2023-02-28T12:09:34;1.10;;;0.50;;
9559;SDS011;4818;50.860;4.648;2023-02-28T12:12:15;2.10;;;0.60;;
9559;SDS011;4818;50.860;4.648;2023-02-28T12:17:30;6.85;;;0.70;;
9559;SDS011;4818;50.860;4.648;2023-02-28T12:27:38;1.45;;;0.50;;
9559;SDS011;4818;50.860;4.648;2023-02-28T12:30:24;2.30;;;0.60;;
9559;SDS011;4818;50.860;4.648;2023-02-28T12:33:01;3.95;;;0.85;;
9559;SDS011;4818;50.860;4.648;2023-02-28T12:35:32;1.17;;;0.45;;
9559;SDS011;4818;50.860;4.648;2023-02-28T12:38:02;1.55;;;0.60;;
9559;SDS011;4818;50.860;4.648;2023-02-28T12:40:41;1.58;;;0.60;;
9559;SDS011;4818;50.860;4.648;2023-02-28T12:43:09;2.20;;;0.45;;
9559;SDS011;4818;50.860;4.648;2023-02-28T12:45:39;2.28;;;0.60;;
9559;SDS011;4818;50.860;4.648;2023-02-28T12:48:08;1.40;;;0.65;;
9559;SDS011;4818;50.860;4.648;2023-02-28T12:50:35;2.03;;;0.63;;
9559;SDS011;4818;50.860;4.648;2023-02-28T12:53:06;1.40;;;0.52;;
9559;SDS011;4818;50.860;4.648;2023-02-28T12:58:05;2.83;;;0.60;;
9559;SDS011;4818;50.860;4.648;2023-02-28T13:00:35;1.23;;;0.52;;
9559;SDS011;4818;50.860;4.648;2023-02-28T13:05:46;3.78;;;0.70;;
9559;SDS011;4818;50.860;4.648;2023-02-28T13:08:30;3.95;;;0.50;;
9559;SDS011;4818;50.860;4.648;2023-02-28T13:10:59;1.90;;;0.70;;
9559;SDS011;4818;50.860;4.648;2023-02-28T13:13:29;1.58;;;0.55;;
9559;SDS011;4818;50.860;4.648;2023-02-28T13:18:28;1.40;;;0.60;;
9559;SDS011;4818;50.860;4.648;2023-02-28T13:20:55;1.67;;;0.63;;
9559;SDS011;4818;50.860;4.648;2023-02-28T13:24:08;1.00;;;0.50;;
9559;SDS011;4818;50.860;4.648;2023-02-28T13:26:08;2.22;;;0.60;;
9559;SDS011;4818;50.860;4.648;2023-02-28T13:29:35;1.90;;;0.60;;
9559;SDS011;4818;50.860;4.648;2023-02-28T13:31:30;0.88;;;0.50;;
9559;SDS011;4818;50.860;4.648;2023-02-28T13:34:05;2.53;;;0.90;;
9559;SDS011;4818;50.860;4.648;2023-02-28T13:36:37;3.78;;;0.60;;
9559;SDS011;4818;50.860;4.648;2023-02-28T13:41:56;1.30;;;0.60;;
9559;SDS011;4818;50.860;4.648;2023-02-28T13:44:23;1.95;;;0.82;;
9559;SDS011;4818;50.860;4.648;2023-02-28T13:49:18;3.38;;;0.77;;
9559;SDS011;4818;50.860;4.648;2023-02-28T13:56:43;1.70;;;0.80;;
9559;SDS011;4818;50.860;4.648;2023-02-28T13:59:55;3.30;;;0.80;;
9559;SDS011;4818;50.860;4.648;2023-02-28T14:07:18;4.50;;;1.17;;
9559;SDS011;4818;50.860;4.648;2023-02-28T14:09:48;2.53;;;0.50;;
9559;SDS011;4818;50.860;4.648;2023-02-28T14:15:02;1.60;;;0.68;;
9559;SDS011;4818;50.860;4.648;2023-02-28T14:17:28;5.72;;;0.77;;
9559;SDS011;4818;50.860;4.648;2023-02-28T14:19:54;2.15;;;0.70;;
9559;SDS011;4818;50.860;4.648;2023-02-28T14:27:26;1.42;;;0.70;;
9559;SDS011;4818;50.860;4.648;2023-02-28T14:35:02;1.80;;;0.68;;
9559;SDS011;4818;50.860;4.648;2023-02-28T14:37:30;6.57;;;0.93;;
9559;SDS011;4818;50.860;4.648;2023-02-28T14:39:58;1.33;;;0.88;;
9559;SDS011;4818;50.860;4.648;2023-02-28T14:42:29;1.63;;;0.82;;
9559;SDS011;4818;50.860;4.648;2023-02-28T14:44:55;4.65;;;1.05;;
9559;SDS011;4818;50.860;4.648;2023-02-28T14:47:21;2.25;;;1.05;;
9559;SDS011;4818;50.860;4.648;2023-02-28T14:49:49;2.08;;;0.93;;
9559;SDS011;4818;50.860;4.648;2023-02-28T14:52:17;4.18;;;1.00;;
9559;SDS011;4818;50.860;4.648;2023-02-28T14:54:44;3.97;;;1.00;;
9559;SDS011;4818;50.860;4.648;2023-02-28T14:57:28;3.28;;;1.02;;
9559;SDS011;4818;50.860;4.648;2023-02-28T15:00:09;2.10;;;0.98;;
9559;SDS011;4818;50.860;4.648;2023-02-28T15:02:38;5.97;;;0.90;;
9559;SDS011;4818;50.860;4.648;2023-02-28T15:07:46;4.80;;;1.00;;
9559;SDS011;4818;50.860;4.648;2023-02-28T15:10:26;2.13;;;1.13;;
9559;SDS011;4818;50.860;4.648;2023-02-28T15:12:57;2.13;;;0.80;;
9559;SDS011;4818;50.860;4.648;2023-02-28T15:15:24;3.95;;;0.80;;
9559;SDS011;4818;50.860;4.648;2023-02-28T15:17:53;2.83;;;1.00;;
9559;SDS011;4818;50.860;4.648;2023-02-28T15:20:20;2.13;;;0.70;;
9559;SDS011;4818;50.860;4.648;2023-02-28T15:22:47;1.98;;;0.75;;
9559;SDS011;4818;50.860;4.648;2023-02-28T15:25:17;2.65;;;0.60;;
9559;SDS011;4818;50.860;4.648;2023-02-28T15:27:45;2.10;;;1.08;;
9559;SDS011;4818;50.860;4.648;2023-02-28T15:30:17;3.47;;;0.80;;
9559;SDS011;4818;50.860;4.648;2023-02-28T15:32:44;1.95;;;0.93;;
9559;SDS011;4818;50.860;4.648;2023-02-28T15:35:18;1.00;;;0.52;;
9559;SDS011;4818;50.860;4.648;2023-02-28T15:37:46;2.00;;;0.60;;
9559;SDS011;4818;50.860;4.648;2023-02-28T15:40:29;2.47;;;0.80;;
9559;SDS011;4818;50.860;4.648;2023-02-28T15:45:46;4.78;;;1.08;;
9559;SDS011;4818;50.860;4.648;2023-02-28T15:48:21;4.20;;;0.95;;
9559;SDS011;4818;50.860;4.648;2023-02-28T15:50:54;2.97;;;1.00;;
9559;SDS011;4818;50.860;4.648;2023-02-28T15:53:24;3.50;;;1.08;;
9559;SDS011;4818;50.860;4.648;2023-02-28T15:55:55;5.05;;;1.00;;
9559;SDS011;4818;50.860;4.648;2023-02-28T15:58:23;3.08;;;0.95;;
9559;SDS011;4818;50.860;4.648;2023-02-28T16:01:07;3.92;;;0.90;;
9559;SDS011;4818;50.860;4.648;2023-02-28T16:03:37;5.18;;;0.95;;
9559;SDS011;4818;50.860;4.648;2023-02-28T16:08:30;3.63;;;1.17;;
9559;SDS011;4818;50.860;4.648;2023-02-28T16:10:56;1.33;;;0.68;;
9559;SDS011;4818;50.860;4.648;2023-02-28T16:13:22;5.93;;;1.20;;
9559;SDS011;4818;50.860;4.648;2023-02-28T16:15:48;1.83;;;0.93;;
9559;SDS011;4818;50.860;4.648;2023-02-28T16:18:16;5.35;;;0.80;;
9559;SDS011;4818;50.860;4.648;2023-02-28T16:20:42;1.98;;;0.88;;
9559;SDS011;4818;50.860;4.648;2023-02-28T16:23:09;3.65;;;0.98;;
9559;SDS011;4818;50.860;4.648;2023-02-28T16:25:45;1.67;;;0.82;;
9559;SDS011;4818;50.860;4.648;2023-02-28T16:28:19;3.22;;;0.65;;
9559;SDS011;4818;50.860;4.648;2023-02-28T16:30:46;2.17;;;0.70;;
9559;SDS011;4818;50.860;4.648;2023-02-28T16:33:12;3.85;;;1.27;;
9559;SDS011;4818;50.860;4.648;2023-02-28T16:35:39;4.07;;;0.80;;
9559;SDS011;4818;50.860;4.648;2023-02-28T16:38:05;2.03;;;1.15;;
9559;SDS011;4818;50.860;4.648;2023-02-28T16:40:33;1.83;;;0.80;;
9559;SDS011;4818;50.860;4.648;2023-02-28T16:42:59;4.07;;;1.17;;
9559;SDS011;4818;50.860;4.648;2023-02-28T16:45:27;2.50;;;0.73;;
9559;SDS011;4818;50.860;4.648;2023-02-28T16:47:53;3.03;;;0.70;;
9559;SDS011;4818;50.860;4.648;2023-02-28T16:50:20;1.52;;;0.70;;
9559;SDS011;4818;50.860;4.648;2023-02-28T16:52:47;5.07;;;0.90;;
9559;SDS011;4818;50.860;4.648;2023-02-28T16:55:14;3.13;;;0.82;;
9559;SDS011;4818;50.860;4.648;2023-02-28T16:57:41;2.45;;;0.60;;
9559;SDS011;4818;50.860;4.648;2023-02-28T17:00:10;4.32;;;1.13;;
9559;SDS011;4818;50.860;4.648;2023-02-28T17:02:37;4.32;;;0.90;;
9559;SDS011;4818;50.860;4.648;2023-02-28T17:05:04;2.33;;;0.95;;
9559;SDS011;4818;50.860;4.648;2023-02-28T17:07:31;5.45;;;1.20;;
9559;SDS011;4818;50.860;4.648;2023-02-28T17:09:58;5.05;;;1.00;;
9559;SDS011;4818;50.860;4.648;2023-02-28T17:12:26;1.83;;;0.70;;
9559;SDS011;4818;50.860;4.648;2023-02-28T17:14:53;7.93;;;1.27;;
9559;SDS011;4818;50.860;4.648;2023-02-28T17:17:20;3.35;;;1.15;;
9559;SDS011;4818;50.860;4.648;2023-02-28T17:19:47;2.47;;;0.77;;
9559;SDS011;4818;50.860;4.648;2023-02-28T17:22:13;5.53;;;1.00;;
9559;SDS011;4818;50.860;4.648;2023-02-28T17:24:39;1.58;;;0.80;;
9559;SDS011;4818;50.860;4.648;2023-02-28T17:27:08;4.78;;;1.90;;